Time;durP1;ratioP1;P1;durP2;ratioP2;P2;SDS_P1;SDS_P2;PMS_P1;PMS_P2;Temp;Humidity;BMP_temperature;BMP_pressure;BME280_temperature;BME280_humidity;BME280_pressure;Samples;Min_cycle;Max_cycle;Signal;HPM_P1;HPM_P2
2022/06/02 00:01:07;;;;;;;4.25;3.00;;;;;;;13.75;72.50;99233.88;4303523;33;34830;-72
2022/06/02 00:03:41;;;;;;;5.30;2.70;;;;;;;13.49;73.16;99241.53;4297465;33;35119;-69
2022/06/02 00:06:14;;;;;;;4.55;2.40;;;;;;;13.94;72.03;99230.78;4304231;33;34539;-69
2022/06/02 00:08:49;;;;;;;3.47;2.60;;;;;;;13.64;73.20;99246.37;4315891;33;34289;-68
2022/06/02 00:11:16;;;;;;;4.37;2.87;;;;;;;14.08;72.21;99236.50;4304233;33;34244;-69
2022/06/02 00:14:04;;;;;;;2.55;2.10;;;;;;;14.37;70.46;99232.25;4304682;33;35086;-69
2022/06/02 00:17:01;;;;;;;3.75;2.40;;;;;;;14.46;69.41;99232.00;4304137;33;34471;-69
2022/06/02 00:19:51;;;;;;;4.20;2.40;;;;;;;14.35;69.85;99234.06;4295767;33;33272;-68
2022/06/02 00:22:28;;;;;;;5.55;2.65;;;;;;;14.68;68.95;99231.41;4304036;33;33807;-69
2022/06/02 00:25:10;;;;;;;4.03;2.70;;;;;;;14.82;68.39;99223.97;4290844;33;34204;-69
2022/06/02 00:27:47;;;;;;;3.75;2.72;;;;;;;15.08;67.18;99230.19;4302519;33;34347;-69
2022/06/02 00:30:48;;;;;;;7.18;2.70;;;;;;;13.81;71.47;99238.09;4304297;33;34384;-68
2022/06/02 00:33:29;;;;;;;3.70;2.90;;;;;;;14.55;69.36;99226.47;4304346;33;34706;-69
2022/06/02 00:35:58;;;;;;;5.00;3.00;;;;;;;14.64;69.19;99227.16;4290365;33;35119;-69
2022/06/02 00:38:30;;;;;;;3.30;2.55;;;;;;;14.88;68.20;99229.06;4302675;33;34419;-69
2022/06/02 00:41:09;;;;;;;4.97;2.90;;;;;;;14.40;70.42;99219.94;4290801;33;33252;-69
2022/06/02 00:43:52;;;;;;;4.07;2.87;;;;;;;14.69;69.28;99223.50;4314888;33;34121;-68
2022/06/02 00:46:20;;;;;;;3.58;2.40;;;;;;;14.66;70.29;99222.72;4303710;33;35013;-69
2022/06/02 00:49:03;;;;;;;5.30;2.62;;;;;;;14.86;69.88;99220.38;4303146;33;33562;-69
2022/06/02 00:52:10;;;;;;;3.28;2.33;;;;;;;14.73;70.67;99226.88;4301816;33;33312;-68
2022/06/02 00:57:41;;;;;;;4.28;2.70;;;;;;;15.02;69.98;99214.66;4302829;33;34932;-69
2022/06/02 01:00:16;;;;;;;4.68;2.47;;;;;;;15.12;70.01;99214.34;4304160;33;34335;-68
2022/06/02 01:03:08;;;;;;;4.37;2.83;;;;;;;15.34;68.76;99209.25;4303417;33;33456;-68
2022/06/02 01:06:01;;;;;;;4.18;3.03;;;;;;;15.43;68.56;99210.72;4293771;33;33907;-68
2022/06/02 01:09:07;;;;;;;5.25;2.58;;;;;;;15.44;69.12;99209.81;4305868;33;35904;-69
2022/06/02 01:11:49;;;;;;;5.10;2.62;;;;;;;15.07;69.39;99210.13;4305261;33;34434;-68
2022/06/02 01:14:37;;;;;;;3.45;2.35;;;;;;;15.57;69.28;99206.78;4305947;33;33853;-69
2022/06/02 01:17:36;;;;;;;3.95;2.72;;;;;;;15.61;69.02;99209.25;4305402;33;34183;-68
2022/06/02 01:20:07;;;;;;;3.40;2.50;;;;;;;15.68;69.54;99205.50;4305303;33;35042;-69
2022/06/02 01:22:55;;;;;;;4.97;2.87;;;;;;;15.52;70.65;99199.91;4305233;33;34397;-69
2022/06/02 01:25:54;;;;;;;3.55;2.72;;;;;;;15.76;68.83;99199.16;4305564;33;33503;-69
2022/06/02 01:28:43;;;;;;;3.97;2.97;;;;;;;15.79;69.22;99189.41;4290114;33;32436;-69
2022/06/02 01:31:30;;;;;;;3.53;2.20;;;;;;;15.88;69.36;99180.38;4294747;33;35166;-69
2022/06/02 01:34:04;;;;;;;5.15;2.65;;;;;;;15.33;72.07;99186.53;4305840;33;34206;-69
2022/06/02 01:36:56;;;;;;;3.53;2.60;;;;;;;15.58;72.04;99183.09;4303193;33;34308;-68
2022/06/02 01:39:59;;;;;;;3.22;2.15;;;;;;;15.22;73.80;99183.41;4293674;33;34589;-71
2022/06/02 01:42:33;;;;;;;3.55;2.50;;;;;;;15.92;71.56;99187.25;4279907;33;34331;-69
2022/06/02 01:45:27;;;;;;;3.70;2.53;;;;;;;15.61;72.60;99190.88;4305687;33;34571;-69
2022/06/02 01:48:16;;;;;;;4.62;2.35;;;;;;;16.00;71.80;99197.47;4305217;33;34253;-69
2022/06/02 01:50:50;;;;;;;3.00;2.28;;;;;;;16.31;69.94;99184.09;4304133;33;33783;-69
2022/06/02 01:53:57;;;;;;;4.40;2.05;;;;;;;16.52;69.80;99186.81;4302373;33;35172;-69
2022/06/02 01:56:56;;;;;;;4.00;2.40;;;;;;;16.21;70.37;99177.47;4305031;33;35349;-69
2022/06/02 01:59:43;;;;;;;2.87;2.17;;;;;;;16.71;68.47;99172.06;4305561;33;34335;-69
2022/06/02 02:02:36;;;;;;;3.40;2.22;;;;;;;16.61;67.59;99173.34;4304017;33;33927;-69
2022/06/02 02:05:18;;;;;;;3.42;2.15;;;;;;;16.61;66.00;99173.34;4299137;33;34233;-70
2022/06/02 02:08:07;;;;;;;2.97;2.30;;;;;;;16.46;68.63;99173.00;4315465;33;34910;-68
2022/06/02 02:11:03;;;;;;;3.40;2.20;;;;;;;16.68;67.04;99172.19;4304823;33;33514;-75
2022/06/02 02:13:38;;;;;;;3.58;2.37;;;;;;;17.03;67.12;99172.63;4291548;33;33894;-69
2022/06/02 02:16:30;;;;;;;3.12;2.30;;;;;;;16.52;68.02;99171.94;4304843;33;35143;-68
2022/06/02 02:19:12;;;;;;;3.28;2.30;;;;;;;17.15;66.64;99177.37;4305342;33;34530;-78
2022/06/02 02:22:05;;;;;;;2.97;2.22;;;;;;;17.00;67.33;99185.91;4304531;33;33428;-68
2022/06/02 02:24:38;;;;;;;4.45;2.10;;;;;;;17.31;66.85;99196.06;4305172;33;34577;-69
2022/06/02 02:27:10;;;;;;;4.12;2.50;;;;;;;17.27;68.44;99210.22;4303732;33;35048;-68
2022/06/02 02:29:46;;;;;;;8.90;2.60;;;;;;;16.90;70.81;99219.56;4305189;33;34776;-68
2022/06/02 02:32:41;;;;;;;9.50;2.75;;;;;;;17.33;70.46;99246.84;4303381;33;32339;-75
2022/06/02 02:35:13;;;;;;;4.82;2.95;;;;;;;16.33;73.60;99245.31;4301954;33;34061;-84
2022/06/02 02:37:49;;;;;;;3.97;2.78;;;;;;;16.20;74.74;99251.91;4303366;33;35866;-76
2022/06/02 02:40:41;;;;;;;5.07;3.40;;;;;;;16.80;72.90;99262.88;4303553;33;32521;-81
2022/06/02 02:43:18;;;;;;;4.53;2.90;;;;;;;16.59;74.68;99267.16;4304775;33;34394;-70
2022/06/02 02:46:21;;;;;;;;;;;;;;;17.19;72.37;99267.59;4304254;33;33884;-68
2022/06/02 02:49:12;;;;;;;4.70;3.33;;;;;;;16.66;76.74;99294.97;4288507;33;35326;-68
2022/06/02 02:51:58;;;;;;;8.32;4.43;;;;;;;16.42;71.52;99339.59;4303208;33;34557;-68
2022/06/02 02:54:37;;;;;;;6.50;4.12;;;;;;;16.61;70.94;99338.97;4290732;33;34280;-67
2022/06/02 02:57:17;;;;;;;6.28;3.78;;;;;;;16.11;73.78;99319.66;4303037;33;33846;-80
2022/06/02 03:00:05;;;;;;;9.90;4.35;;;;;;;15.97;76.01;99335.00;4303209;33;34935;-68
2022/06/02 03:02:40;;;;;;;7.78;4.10;;;;;;;16.34;75.53;99344.28;4315258;33;34523;-68
2022/06/02 03:05:16;;;;;;;9.55;4.40;;;;;;;16.34;76.70;99336.41;4304579;33;33416;-68
2022/06/02 03:07:43;;;;;;;7.85;4.97;;;;;;;16.20;77.16;99349.12;4304152;33;34807;-67
2022/06/02 03:10:34;;;;;;;6.62;4.37;;;;;;;16.09;78.99;99342.47;4304980;33;35092;-68
2022/06/02 03:13:24;;;;;;;6.82;4.45;;;;;;;16.23;79.45;99341.16;4303138;33;35226;-68
2022/06/02 03:15:56;;;;;;;11.23;4.70;;;;;;;16.51;78.12;99340.19;4304391;33;33469;-67
2022/06/02 03:19:00;;;;;;;7.53;4.47;;;;;;;16.47;78.79;99353.44;4303245;33;33876;-69
2022/06/02 03:21:35;;;;;;;9.20;4.75;;;;;;;16.56;78.72;99347.00;4304346;33;34915;-68
2022/06/02 03:24:32;;;;;;;6.00;4.18;;;;;;;16.79;77.11;99337.44;4315637;33;35199;-68
2022/06/02 03:27:31;;;;;;;6.70;4.47;;;;;;;16.21;80.23;99350.84;4302751;33;33368;-68
2022/06/02 03:30:06;;;;;;;9.63;5.18;;;;;;;15.70;84.41;99360.34;4304742;33;34686;-68
2022/06/02 03:32:52;;;;;;;7.57;4.85;;;;;;;15.99;83.36;99362.06;4296327;33;35763;-68
2022/06/02 03:35:33;;;;;;;9.65;5.37;;;;;;;16.95;78.12;99345.66;4303870;33;34520;-68
2022/06/02 03:38:04;;;;;;;8.73;4.82;;;;;;;16.54;80.47;99342.72;4303927;33;33158;-70
2022/06/02 03:41:00;;;;;;;10.20;5.80;;;;;;;16.63;79.35;99338.00;4304765;33;33225;-73
2022/06/02 03:43:42;;;;;;;10.88;5.20;;;;;;;16.88;79.00;99324.00;4302898;33;34901;-71
2022/06/02 03:46:19;;;;;;;11.05;5.10;;;;;;;16.91;78.23;99309.88;4303765;33;34719;-79
2022/06/02 03:49:08;;;;;;;8.20;5.32;;;;;;;16.03;84.22;99302.44;4304299;33;33663;-69
2022/06/02 03:51:50;;;;;;;7.65;5.20;;;;;;;15.79;85.87;99293.59;4303361;33;34749;-69
2022/06/02 03:54:33;;;;;;;10.93;6.72;;;;;;;16.10;84.58;99275.88;4315497;33;35154;-69
2022/06/02 03:57:07;;;;;;;9.60;5.85;;;;;;;16.52;82.68;99279.69;4303871;33;35168;-81
2022/06/02 03:59:46;;;;;;;9.60;5.25;;;;;;;16.51;81.45;99285.00;4304527;33;33585;-72
2022/06/02 04:02:17;;;;;;;9.93;6.10;;;;;;;16.69;82.34;99284.31;4303888;33;33939;-75
2022/06/02 04:05:14;;;;;;;8.60;5.57;;;;;;;16.53;82.69;99291.91;4303846;33;36021;-77
2022/06/02 04:08:12;;;;;;;8.77;6.50;;;;;;;16.66;82.29;99285.31;4303233;33;34338;-83
2022/06/02 04:11:23;;;;;;;7.97;5.30;;;;;;;16.26;83.83;99301.63;4304213;33;33413;-78
2022/06/02 04:14:09;;;;;;;7.65;5.53;;;;;;;16.04;85.28;99302.38;4304536;33;34614;-70
2022/06/02 04:17:26;;;;;;;7.60;5.55;;;;;;;16.12;84.32;99312.63;4304197;33;35808;-73
2022/06/02 04:20:36;;;;;;;9.00;5.28;;;;;;;16.70;81.74;99312.34;4300450;33;34261;-69
2022/06/02 04:23:41;;;;;;;7.47;4.90;;;;;;;17.30;78.03;99317.16;4290865;33;32170;-74
2022/06/02 04:26:50;;;;;;;7.25;4.57;;;;;;;17.39;78.34;99308.91;4291130;33;33200;-75
2022/06/02 04:29:45;;;;;;;7.97;5.75;;;;;;;17.65;77.55;99307.00;4273155;33;34960;-75
2022/06/02 04:32:28;;;;;;;7.47;5.25;;;;;;;17.74;77.88;99302.22;4294096;33;34346;-80
2022/06/02 04:35:33;;;;;;;6.87;4.90;;;;;;;17.71;77.26;99301.50;4303969;33;33430;-79
2022/06/02 04:38:28;;;;;;;9.63;5.20;;;;;;;17.41;79.70;99305.28;4302452;33;33993;-69
2022/06/02 04:41:22;;;;;;;6.47;4.60;;;;;;;17.49;81.17;99323.44;4299684;33;34769;-70
2022/06/02 04:44:01;;;;;;;6.65;4.50;;;;;;;18.12;77.20;99317.41;4304238;33;34463;-70
2022/06/02 04:46:43;;;;;;;7.32;4.97;;;;;;;18.35;75.51;99314.66;4303245;33;33649;-70
2022/06/02 04:49:26;;;;;;;7.35;5.68;;;;;;;18.06;76.45;99307.13;4304435;33;33964;-72
2022/06/02 04:52:03;;;;;;;8.23;5.45;;;;;;;17.33;79.76;99314.41;4315290;33;34664;-71
2022/06/02 04:54:41;;;;;;;7.43;4.57;;;;;;;17.85;78.00;99309.69;4315123;33;33845;-71
2022/06/02 04:57:30;;;;;;;6.75;4.30;;;;;;;18.04;76.90;99303.72;4312193;33;33692;-70
2022/06/02 05:00:07;;;;;;;8.73;5.15;;;;;;;18.12;76.67;99302.44;4289626;33;33940;-70
2022/06/02 05:02:56;;;;;;;6.57;4.80;;;;;;;18.14;76.58;99310.28;4288466;33;35012;-76
2022/06/02 05:05:49;;;;;;;8.25;4.65;;;;;;;17.91;78.00;99314.75;4298055;33;34263;-69
2022/06/02 05:08:44;;;;;;;5.35;4.28;;;;;;;18.43;77.63;99326.66;4302819;33;31885;-69
2022/06/02 05:11:17;;;;;;;9.45;4.45;;;;;;;18.96;74.73;99330.50;4302927;33;34707;-69
2022/06/02 05:14:39;;;;;;;6.40;5.03;;;;;;;19.12;73.70;99328.88;4290875;33;33698;-69
2022/06/02 05:17:45;;;;;;;6.50;4.65;;;;;;;18.54;77.02;99324.38;4286377;33;34384;-69
2022/06/02 05:20:53;;;;;;;5.78;3.92;;;;;;;19.10;72.94;99326.28;4261212;33;33576;-69
2022/06/02 05:23:39;;;;;;;;;;;;;;;18.31;75.81;99333.28;4303200;33;33114;-69
2022/06/02 05:26:32;;;;;;;7.00;3.97;;;;;;;17.71;79.75;99338.37;4302644;33;35209;-69
2022/06/02 05:29:05;;;;;;;6.28;4.18;;;;;;;19.04;73.39;99347.72;4303203;33;35060;-69
2022/06/02 05:32:05;;;;;;;6.87;4.30;;;;;;;18.96;72.93;99351.63;4301782;33;32736;-69
2022/06/02 05:34:58;;;;;;;7.07;4.12;;;;;;;18.72;73.85;99349.97;4302602;33;33827;-69
2022/06/02 05:37:41;;;;;;;6.68;4.25;;;;;;;18.41;77.31;99354.88;4302309;33;35505;-69
2022/06/02 05:40:38;;;;;;;5.35;4.03;;;;;;;18.85;75.05;99354.75;4302476;33;34345;-69
2022/06/02 05:43:25;;;;;;;6.28;4.03;;;;;;;18.67;77.28;99362.50;4298906;33;33336;-69
2022/06/02 05:46:08;;;;;;;6.80;4.82;;;;;;;18.79;78.05;99365.50;4291833;33;34724;-70
2022/06/02 05:48:43;;;;;;;7.18;3.90;;;;;;;18.89;77.49;99366.84;4303429;33;35057;-69
2022/06/02 05:51:13;;;;;;;6.40;4.15;;;;;;;20.01;75.14;99368.69;4304973;33;34627;-70
2022/06/02 05:53:53;;;;;;;9.05;4.05;;;;;;;20.53;72.32;99368.75;4305267;33;34267;-69
2022/06/02 05:56:53;;;;;;;5.30;3.47;;;;;;;20.82;69.53;99363.75;4303696;33;33992;-69
2022/06/02 05:59:36;;;;;;;5.00;3.30;;;;;;;20.75;70.62;99380.88;4292449;33;35359;-69
2022/06/02 06:02:26;;;;;;;4.53;3.40;;;;;;;20.93;67.87;99373.75;4304980;33;34475;-70
2022/06/02 06:05:14;;;;;;;5.07;3.22;;;;;;;20.99;68.66;99376.94;4305024;33;33246;-69
2022/06/02 06:08:26;;;;;;;4.95;3.55;;;;;;;21.63;66.81;99382.34;4304887;33;32680;-71
2022/06/02 06:11:01;;;;;;;5.85;3.47;;;;;;;21.62;66.76;99372.72;4287244;33;35968;-70
2022/06/02 06:13:45;;;;;;;4.87;3.47;;;;;;;21.20;67.51;99387.34;4288875;33;34178;-77
2022/06/02 06:16:22;;;;;;;4.85;3.40;;;;;;;21.96;65.48;99386.72;4299432;33;33592;-69
2022/06/02 06:19:15;;;;;;;4.10;3.42;;;;;;;21.46;63.03;99377.13;4305269;33;34780;-76
2022/06/02 06:21:55;;;;;;;4.95;3.22;;;;;;;22.43;60.55;99374.28;4303279;33;35805;-91
2022/06/02 06:24:42;;;;;;;5.43;3.62;;;;;;;22.96;57.75;99372.88;4304685;33;34443;-69
2022/06/02 06:28:11;;;;;;;4.62;3.60;;;;;;;22.28;62.13;99373.41;4303725;33;33317;-78
2022/06/02 06:31:01;;;;;;;6.18;3.67;;;;;;;23.24;59.87;99382.69;4269838;33;33932;-80
2022/06/02 06:33:48;;;;;;;6.00;3.50;;;;;;;23.25;58.04;99395.00;4301210;33;35896;-83
2022/06/02 06:36:34;;;;;;;6.43;3.10;;;;;;;23.19;59.61;99395.41;4294309;33;35250;-69
2022/06/02 06:39:09;;;;;;;6.45;3.72;;;;;;;22.77;59.74;99398.84;4304784;33;34536;-68
2022/06/02 06:42:02;;;;;;;5.03;3.35;;;;;;;22.79;60.87;99403.09;4304787;33;33940;-71
2022/06/02 06:44:46;;;;;;;7.00;3.97;;;;;;;23.85;56.70;99409.00;4315804;33;35767;-69
2022/06/02 06:47:24;;;;;;;5.15;3.42;;;;;;;22.14;61.79;99406.84;4304348;33;34347;-69
2022/06/02 06:50:17;;;;;;;5.95;3.75;;;;;;;21.92;63.77;99417.84;4304122;33;33469;-69
2022/06/02 06:52:57;;;;;;;4.97;3.67;;;;;;;21.94;63.09;99420.41;4304479;33;34052;-68
2022/06/02 06:55:38;;;;;;;8.35;3.70;;;;;;;22.52;61.48;99411.78;4305184;33;36001;-69
2022/06/02 06:58:42;;;;;;;6.32;3.80;;;;;;;22.58;59.10;99415.00;4304702;33;34513;-69
2022/06/02 07:01:36;;;;;;;6.80;4.00;;;;;;;22.09;61.54;99419.53;4291604;33;33435;-69
2022/06/02 07:04:35;;;;;;;5.45;3.33;;;;;;;22.94;60.81;99416.41;4315965;33;35124;-69
2022/06/02 07:07:21;;;;;;;5.05;3.33;;;;;;;22.78;60.27;99419.97;4304100;33;36039;-70
2022/06/02 07:09:58;;;;;;;5.65;3.90;;;;;;;23.77;57.04;99417.44;4304014;33;34462;-71
2022/06/02 07:12:52;;;;;;;5.50;3.40;;;;;;;23.59;58.87;99418.59;4315177;33;33375;-71
2022/06/02 07:15:33;;;;;;;4.97;3.03;;;;;;;23.54;59.05;99428.66;4292580;33;34199;-70
2022/06/02 07:18:35;;;;;;;5.57;2.90;;;;;;;23.99;56.25;99422.25;4304390;33;35027;-72
2022/06/02 07:21:18;;;;;;;4.22;3.03;;;;;;;23.53;56.47;99425.16;4301830;33;34128;-71
2022/06/02 07:23:52;;;;;;;7.75;3.25;;;;;;;23.50;58.26;99435.13;4300908;33;33439;-70
2022/06/02 07:26:47;;;;;;;5.78;3.28;;;;;;;24.40;54.70;99431.97;4304173;33;33834;-82
2022/06/02 07:29:53;;;;;;;4.30;3.17;;;;;;;24.12;56.13;99430.28;4304133;33;35122;-86
2022/06/02 07:32:39;;;;;;;5.28;3.70;;;;;;;24.30;54.33;99427.34;4304284;33;35762;-78
2022/06/02 07:35:49;;;;;;;6.85;3.17;;;;;;;23.53;54.71;99425.16;4304762;33;33757;-71
2022/06/02 07:38:38;;;;;;;5.78;3.47;;;;;;;24.19;53.67;99422.75;4302633;33;35663;-69
2022/06/02 07:41:51;;;;;;;4.25;2.70;;;;;;;25.12;54.36;99417.41;4303189;33;34920;-70
2022/06/02 07:44:19;;;;;;;4.78;3.00;;;;;;;25.71;51.02;99424.78;4297818;33;34552;-70
2022/06/02 07:47:09;;;;;;;5.20;2.70;;;;;;;25.69;51.53;99429.37;4301390;33;34375;-69
2022/06/02 07:50:00;;;;;;;4.25;2.87;;;;;;;25.28;49.07;99436.69;4304909;33;34748;-69
2022/06/02 07:52:50;;;;;;;6.05;3.25;;;;;;;27.13;45.88;99431.13;4302935;33;35994;-69
2022/06/02 07:55:33;;;;;;;4.47;3.00;;;;;;;26.48;50.34;99429.84;4291645;33;33693;-69
2022/06/02 07:58:21;;;;;;;5.85;3.90;;;;;;;27.06;47.50;99421.87;4303969;33;32952;-74
2022/06/02 08:01:05;;;;;;;6.65;4.07;;;;;;;26.77;51.31;99429.47;4303957;33;33922;-69
2022/06/02 08:03:45;;;;;;;5.47;3.87;;;;;;;27.71;47.39;99431.00;4290687;33;34791;-69
2022/06/02 08:06:34;;;;;;;4.72;3.12;;;;;;;26.36;50.36;99433.44;4304055;33;34493;-70
2022/06/02 08:09:28;;;;;;;5.97;3.35;;;;;;;27.43;45.03;99435.06;4304658;33;33530;-68
2022/06/02 08:12:16;;;;;;;29.20;6.37;;;;;;;27.58;43.53;99441.00;4302724;33;33745;-80
2022/06/02 08:15:01;;;;;;;6.80;3.80;;;;;;;27.60;47.09;99433.69;4304425;33;35136;-71
2022/06/02 08:17:38;;;;;;;5.35;3.75;;;;;;;27.07;48.01;99442.28;4301549;33;33723;-70
2022/06/02 08:20:26;;;;;;;5.43;3.50;;;;;;;28.25;43.82;99445.37;4302776;33;32592;-69
2022/06/02 08:23:08;;;;;;;4.65;3.05;;;;;;;27.53;46.84;99432.47;4302925;33;33762;-69
2022/06/02 08:25:58;;;;;;;4.90;3.45;;;;;;;27.21;47.59;99439.41;4314869;33;35309;-69
2022/06/02 08:28:38;;;;;;;6.97;3.10;;;;;;;26.25;47.15;99435.06;4292257;33;302506;-69
2022/06/02 08:31:31;;;;;;;4.70;3.28;;;;;;;27.71;45.55;99441.72;4302733;33;34345;-69
2022/06/02 08:34:08;;;;;;;4.65;3.03;;;;;;;28.04;44.94;99444.47;4289808;33;33952;-69
2022/06/02 08:37:00;;;;;;;4.62;3.33;;;;;;;27.23;47.33;99441.91;4302851;33;34998;-70
2022/06/02 08:39:31;;;;;;;4.18;2.75;;;;;;;27.52;46.43;99444.16;4301649;33;34296;-70
2022/06/02 08:42:38;;;;;;;4.75;3.05;;;;;;;27.26;47.50;99444.37;4303893;33;33428;-69
2022/06/02 08:45:37;;;;;;;5.85;3.08;;;;;;;28.25;45.26;99437.34;4304415;33;33941;-70
2022/06/02 08:48:32;;;;;;;9.45;3.28;;;;;;;27.87;45.03;99443.16;4303669;33;35029;-69
2022/06/02 08:51:19;;;;;;;5.75;2.80;;;;;;;28.34;44.71;99454.47;4303750;33;34437;-69
2022/06/02 08:53:59;;;;;;;5.53;3.55;;;;;;;28.34;42.58;99449.12;4303499;33;33419;-70
2022/06/02 08:57:05;;;;;;;4.35;2.97;;;;;;;28.25;44.49;99444.53;4304085;33;34902;-70
2022/06/02 08:59:54;;;;;;;3.83;2.60;;;;;;;28.25;46.45;99449.91;4303942;33;35754;-70
2022/06/02 09:02:47;;;;;;;6.05;3.00;;;;;;;29.28;42.23;99444.75;4302966;33;32870;-70
2022/06/02 09:05:31;;;;;;;4.07;2.87;;;;;;;28.43;43.05;99453.72;4288704;33;33553;-70
2022/06/02 09:08:41;;;;;;;5.20;2.55;;;;;;;28.80;43.94;99463.19;4298869;33;33832;-69
2022/06/02 09:11:34;;;;;;;3.67;2.42;;;;;;;29.42;42.76;99464.16;4302087;33;35928;-70
2022/06/02 09:14:34;;;;;;;3.95;2.87;;;;;;;28.83;42.25;99469.16;4289560;33;34408;-69
2022/06/02 09:17:26;;;;;;;5.35;2.42;;;;;;;28.93;42.79;99469.22;4292798;33;34261;-70
2022/06/02 09:20:12;;;;;;;3.80;2.42;;;;;;;29.69;40.39;99474.31;4303884;33;34842;-69
2022/06/02 09:22:56;;;;;;;3.85;2.70;;;;;;;29.76;41.03;99477.31;4301312;33;36175;-69
2022/06/02 09:25:36;;;;;;;4.28;2.62;;;;;;;29.50;40.37;99481.28;4291140;33;34532;-70
2022/06/02 09:28:43;;;;;;;4.12;2.20;;;;;;;30.43;38.47;99473.94;4299662;33;33567;-69
2022/06/02 09:31:23;;;;;;;2.78;2.00;;;;;;;29.64;42.19;99481.91;4305211;33;34776;-70
2022/06/02 09:34:33;;;;;;;4.20;2.25;;;;;;;30.11;39.39;99473.28;4304646;33;35355;-69
2022/06/02 09:37:26;;;;;;;3.45;2.35;;;;;;;28.68;42.75;99479.34;4315674;33;35271;-71
2022/06/02 09:40:14;;;;;;;5.70;2.60;;;;;;;28.84;42.92;99484.25;4305661;33;34355;-76
2022/06/02 09:42:57;;;;;;;3.35;2.20;;;;;;;29.36;41.55;99483.47;4302643;33;33919;-70
2022/06/02 09:46:16;;;;;;;4.47;2.25;;;;;;;29.69;41.42;99485.03;4305633;33;35185;-70
2022/06/02 09:49:25;;;;;;;5.57;2.47;;;;;;;29.48;40.98;99487.78;4264600;33;34329;-69
2022/06/02 09:52:09;;;;;;;4.22;2.80;;;;;;;29.47;41.33;99470.84;4305412;33;32692;-70
2022/06/02 09:54:46;;;;;;;4.00;2.67;;;;;;;29.84;40.08;99467.59;4302799;33;34624;-73
2022/06/02 09:57:57;;;;;;;3.87;2.50;;;;;;;29.44;40.92;99475.63;4303672;33;34127;-80
2022/06/02 10:00:48;;;;;;;4.25;3.15;;;;;;;29.20;42.15;99463.34;4305630;33;35383;-82
2022/06/02 10:03:24;;;;;;;4.93;3.15;;;;;;;28.82;43.77;99455.88;4305033;33;34006;-87
2022/06/02 10:06:11;;;;;;;3.78;2.80;;;;;;;29.22;43.07;99458.69;4305386;33;34823;-86
2022/06/02 10:09:24;;;;;;;3.83;2.45;;;;;;;29.36;42.38;99462.00;4304702;33;35215;-85
2022/06/02 10:15:17;;;;;;;3.67;2.53;;;;;;;29.99;40.45;99451.94;4305222;33;33583;-68
2022/06/02 10:17:56;;;;;;;5.32;2.60;;;;;;;29.73;42.98;99464.12;4296510;33;34024;-77
2022/06/02 10:20:56;;;;;;;4.72;2.80;;;;;;;28.85;42.78;99466.34;4305203;33;35984;-85
2022/06/02 10:23:33;;;;;;;3.60;2.50;;;;;;;29.16;41.75;99472.66;4303395;33;34452;-85
2022/06/02 10:26:06;;;;;;;3.78;2.30;;;;;;;29.44;40.44;99464.88;4304790;33;33533;-84
2022/06/02 10:28:55;;;;;;;3.40;2.25;;;;;;;29.08;42.73;99469.72;4303274;33;33800;-70
2022/06/02 10:31:30;;;;;;;3.80;2.50;;;;;;;30.16;40.59;99466.53;4305227;33;35915;-69
2022/06/02 10:34:22;;;;;;;2.85;2.22;;;;;;;30.29;40.00;99460.06;4304484;33;34316;-84
2022/06/02 10:37:27;;;;;;;4.03;2.75;;;;;;;29.68;40.31;99462.72;4304466;33;33649;-68
2022/06/02 10:40:04;;;;;;;6.95;3.17;;;;;;;30.56;40.19;99454.84;4297379;33;33895;-72
2022/06/02 10:42:50;;;;;;;7.70;3.20;;;;;;;29.96;39.27;99460.25;4304563;33;35971;-77
2022/06/02 10:45:35;;;;;;;5.10;2.85;;;;;;;29.08;41.53;99464.38;4302213;33;33385;-72
2022/06/02 10:48:22;;;;;;;4.87;3.20;;;;;;;28.96;42.71;99460.06;4304385;33;33358;-72
2022/06/02 10:51:28;;;;;;;3.62;2.70;;;;;;;28.68;41.19;99473.16;4302991;33;35437;-72
2022/06/02 10:54:40;;;;;;;4.45;3.15;;;;;;;28.99;43.37;99466.00;4290328;33;35979;-71
2022/06/02 10:57:27;;;;;;;4.20;3.12;;;;;;;28.77;43.21;99471.47;4298171;33;35070;-71
2022/06/02 11:00:20;;;;;;;4.20;3.10;;;;;;;28.65;43.06;99479.59;4304972;33;33424;-69
2022/06/02 11:03:07;;;;;;;5.20;4.07;;;;;;;29.15;42.98;99465.56;4304311;33;33954;-80
2022/06/02 11:05:59;;;;;;;4.37;2.87;;;;;;;29.05;43.12;99472.66;4304432;33;35220;-70
2022/06/02 11:09:09;;;;;;;3.45;2.30;;;;;;;29.48;40.95;99469.81;4288914;33;34054;-76
2022/06/02 11:11:55;;;;;;;11.55;3.05;;;;;;;29.42;41.40;99466.81;4293916;33;33198;-71
2022/06/02 11:14:35;;;;;;;3.20;2.33;;;;;;;29.50;42.66;99458.97;4304311;33;33957;-72
2022/06/02 11:17:21;;;;;;;4.15;2.72;;;;;;;29.06;42.98;99460.97;4304561;33;35883;-69
2022/06/02 11:20:08;;;;;;;3.42;2.33;;;;;;;29.37;41.42;99456.53;4304939;33;35325;-70
2022/06/02 11:23:14;;;;;;;4.70;2.67;;;;;;;28.13;43.86;99463.31;4304098;33;33686;-70
2022/06/02 11:26:12;;;;;;;4.07;3.00;;;;;;;28.71;42.01;99462.13;4290568;33;34735;-70
2022/06/02 11:28:59;;;;;;;4.03;2.33;;;;;;;28.67;41.53;99461.56;4289647;33;34653;-69
2022/06/02 11:31:40;;;;;;;2.78;2.20;;;;;;;28.76;41.99;99470.66;4304670;33;34439;-72
2022/06/02 11:34:08;;;;;;;2.90;2.20;;;;;;;29.49;39.70;99478.75;4304945;33;34370;-72
2022/06/02 11:36:58;;;;;;;3.83;2.05;;;;;;;29.13;39.67;99471.03;4304469;33;34731;-70
2022/06/02 11:39:35;;;;;;;2.90;2.03;;;;;;;29.55;37.91;99482.72;4304941;33;35878;-69
2022/06/02 11:42:33;;;;;;;3.17;1.98;;;;;;;29.94;40.31;99472.97;4304424;33;35076;-72
2022/06/02 11:45:07;;;;;;;2.40;1.92;;;;;;;29.28;38.53;99468.91;4304337;33;33611;-72
2022/06/02 11:47:42;;;;;;;3.22;2.30;;;;;;;29.09;39.23;99471.44;4303148;33;33829;-71
2022/06/02 11:50:16;;;;;;;;;;;;;;;29.87;38.27;99472.69;4304855;33;36231;-71
2022/06/02 11:52:46;;;;;;;4.12;2.05;;;;;;;29.98;39.14;99469.03;4304076;33;34677;-71
2022/06/02 11:55:32;;;;;;;2.72;2.10;;;;;;;28.92;39.22;99476.44;4304917;33;34294;-74
2022/06/02 11:58:21;;;;;;;5.30;1.90;;;;;;;29.39;36.36;99475.16;4304640;33;34055;-70
2022/06/02 12:00:49;;;;;;;3.95;1.90;;;;;;;30.12;37.46;99469.63;4304273;33;35092;-69
2022/06/02 12:03:39;;;;;;;4.32;1.98;;;;;;;30.28;38.30;99469.09;4304160;33;33840;-69
2022/06/02 12:06:45;;;;;;;2.03;1.70;;;;;;;29.63;37.97;99467.66;4304281;33;33571;-70
2022/06/02 12:09:40;;;;;;;3.17;1.80;;;;;;;30.14;37.81;99470.34;4290264;33;34079;-71
2022/06/02 12:12:14;;;;;;;2.00;1.65;;;;;;;29.91;37.21;99469.72;4293754;33;35004;-70
2022/06/02 12:14:59;;;;;;;1.52;1.42;;;;;;;28.99;37.40;99466.00;4304565;33;35352;-70
2022/06/02 12:18:00;;;;;;;3.17;1.50;;;;;;;28.64;40.79;99472.53;4303041;33;32999;-70
2022/06/02 12:21:06;;;;;;;2.20;1.35;;;;;;;29.22;38.38;99477.47;4304503;33;33863;-70
2022/06/02 12:23:40;;;;;;;1.92;1.55;;;;;;;28.93;39.35;99478.09;4303597;33;35043;-73
2022/06/02 12:26:15;;;;;;;3.00;1.45;;;;;;;28.82;37.95;99475.50;4303177;33;34514;-71
2022/06/02 12:28:59;;;;;;;3.22;1.48;;;;;;;28.72;36.49;99474.56;4302046;33;33664;-70
2022/06/02 12:31:46;;;;;;;1.50;1.37;;;;;;;28.51;38.55;99472.69;4302956;33;34282;-70
2022/06/02 12:34:31;;;;;;;1.67;1.58;;;;;;;28.59;37.47;99476.56;4304429;33;35047;-69
2022/06/02 12:37:03;;;;;;;2.90;1.33;;;;;;;29.05;36.40;99488.75;4293586;33;35275;-70
2022/06/02 12:39:44;;;;;;;1.52;1.37;;;;;;;29.35;36.49;99476.41;4303752;33;34264;-71
2022/06/02 12:42:45;;;;;;;3.40;1.20;;;;;;;29.65;36.38;99473.72;4303757;33;33856;-70
2022/06/02 12:46:01;;;;;;;1.33;1.17;;;;;;;29.60;35.82;99481.31;4303061;33;35006;-70
2022/06/02 12:49:14;;;;;;;1.33;1.15;;;;;;;29.41;34.88;99481.25;4299664;33;35117;-70
2022/06/02 12:52:13;;;;;;;1.62;1.42;;;;;;;29.39;35.46;99491.25;4285649;33;33435;-71
2022/06/02 12:55:03;;;;;;;2.08;1.70;;;;;;;29.44;36.58;99484.50;4274806;33;34272;-69
2022/06/02 12:57:54;;;;;;;2.17;1.30;;;;;;;29.17;36.52;99503.81;4301056;33;35038;-70
2022/06/02 13:00:34;;;;;;;1.55;1.30;;;;;;;29.50;35.71;99491.16;4305710;33;35224;-70
2022/06/02 13:03:40;;;;;;;2.55;1.50;;;;;;;28.17;38.09;99486.19;4305315;33;33552;-70
2022/06/02 13:06:32;;;;;;;2.17;1.43;;;;;;;28.78;38.04;99495.47;4305218;33;34177;-70
2022/06/02 13:09:12;;;;;;;1.70;1.23;;;;;;;28.55;37.23;99494.72;4303974;33;35417;-87
2022/06/02 13:12:18;;;;;;;1.40;1.30;;;;;;;29.17;35.07;99493.09;4304327;33;34518;-71
2022/06/02 13:15:16;;;;;;;2.10;1.40;;;;;;;28.66;37.12;99485.78;4305738;33;33750;-70
2022/06/02 13:18:08;;;;;;;1.62;1.30;;;;;;;28.79;37.56;99488.31;4304742;33;34666;-70